sensor_id;sensor_type;location;lat;lon;timestamp;P1;durP1;ratioP1;P2;durP2;ratioP2
1747;SDS011;871;47.034;15.394;2022-12-29T05:02:35;31.05;;;10.20;;
1747;SDS011;871;47.034;15.394;2022-12-29T05:05:01;33.58;;;10.85;;
1747;SDS011;871;47.034;15.394;2022-12-29T05:07:28;36.30;;;12.82;;
1747;SDS011;871;47.034;15.394;2022-12-29T05:09:54;30.80;;;9.57;;
1747;SDS011;871;47.034;15.394;2022-12-29T05:12:20;33.25;;;10.73;;
1747;SDS011;871;47.034;15.394;2022-12-29T05:14:46;34.17;;;10.60;;
1747;SDS011;871;47.034;15.394;2022-12-29T05:17:12;35.65;;;12.93;;
1747;SDS011;871;47.034;15.394;2022-12-29T05:19:38;34.20;;;11.38;;
1747;SDS011;871;47.034;15.394;2022-12-29T05:22:04;38.42;;;13.57;;
1747;SDS011;871;47.034;15.394;2022-12-29T05:24:30;35.00;;;12.25;;
1747;SDS011;871;47.034;15.394;2022-12-29T05:26:56;37.40;;;11.50;;
1747;SDS011;871;47.034;15.394;2022-12-29T05:29:23;38.38;;;11.20;;
1747;SDS011;871;47.034;15.394;2022-12-29T05:31:49;37.13;;;11.48;;
1747;SDS011;871;47.034;15.394;2022-12-29T05:34:15;36.47;;;10.82;;
1747;SDS011;871;47.034;15.394;2022-12-29T05:36:42;40.30;;;13.48;;
1747;SDS011;871;47.034;15.394;2022-12-29T05:39:08;38.13;;;11.55;;
1747;SDS011;871;47.034;15.394;2022-12-29T05:41:35;44.17;;;13.27;;
1747;SDS011;871;47.034;15.394;2022-12-29T05:44:02;43.00;;;12.20;;
1747;SDS011;871;47.034;15.394;2022-12-29T05:46:28;40.60;;;13.07;;
1747;SDS011;871;47.034;15.394;2022-12-29T05:48:54;38.33;;;10.60;;
1747;SDS011;871;47.034;15.394;2022-12-29T05:51:20;44.40;;;13.40;;
1747;SDS011;871;47.034;15.394;2022-12-29T05:53:46;42.28;;;12.60;;
1747;SDS011;871;47.034;15.394;2022-12-29T05:56:12;46.17;;;11.75;;
1747;SDS011;871;47.034;15.394;2022-12-29T05:58:39;49.75;;;12.98;;
1747;SDS011;871;47.034;15.394;2022-12-29T06:01:05;47.92;;;12.70;;
1747;SDS011;871;47.034;15.394;2022-12-29T06:03:31;41.25;;;11.82;;
1747;SDS011;871;47.034;15.394;2022-12-29T06:05:57;47.17;;;13.90;;
1747;SDS011;871;47.034;15.394;2022-12-29T06:08:23;45.92;;;12.20;;
1747;SDS011;871;47.034;15.394;2022-12-29T06:10:49;46.08;;;12.95;;
1747;SDS011;871;47.034;15.394;2022-12-29T06:13:15;52.50;;;14.15;;
1747;SDS011;871;47.034;15.394;2022-12-29T06:15:43;47.85;;;12.25;;
1747;SDS011;871;47.034;15.394;2022-12-29T06:18:09;44.45;;;11.90;;
1747;SDS011;871;47.034;15.394;2022-12-29T06:20:35;44.53;;;11.02;;
1747;SDS011;871;47.034;15.394;2022-12-29T06:23:01;51.42;;;12.73;;
1747;SDS011;871;47.034;15.394;2022-12-29T06:25:27;49.60;;;12.55;;
1747;SDS011;871;47.034;15.394;2022-12-29T06:27:55;40.80;;;10.90;;
1747;SDS011;871;47.034;15.394;2022-12-29T06:30:21;44.45;;;12.75;;
1747;SDS011;871;47.034;15.394;2022-12-29T06:32:47;46.42;;;12.60;;
1747;SDS011;871;47.034;15.394;2022-12-29T06:35:14;47.95;;;12.70;;
1747;SDS011;871;47.034;15.394;2022-12-29T06:37:40;40.75;;;12.18;;
1747;SDS011;871;47.034;15.394;2022-12-29T06:40:06;41.53;;;12.15;;
1747;SDS011;871;47.034;15.394;2022-12-29T06:42:32;44.25;;;11.65;;
1747;SDS011;871;47.034;15.394;2022-12-29T06:44:59;51.05;;;12.60;;
1747;SDS011;871;47.034;15.394;2022-12-29T06:47:25;49.42;;;14.18;;
1747;SDS011;871;47.034;15.394;2022-12-29T06:49:51;45.08;;;12.35;;
1747;SDS011;871;47.034;15.394;2022-12-29T06:52:17;51.28;;;14.13;;
1747;SDS011;871;47.034;15.394;2022-12-29T06:54:43;54.42;;;12.88;;
1747;SDS011;871;47.034;15.394;2022-12-29T06:57:10;46.03;;;11.27;;
1747;SDS011;871;47.034;15.394;2022-12-29T06:59:36;47.58;;;12.18;;
1747;SDS011;871;47.034;15.394;2022-12-29T07:02:02;48.83;;;13.95;;
1747;SDS011;871;47.034;15.394;2022-12-29T07:04:28;47.53;;;13.07;;
1747;SDS011;871;47.034;15.394;2022-12-29T07:06:54;48.40;;;12.82;;
1747;SDS011;871;47.034;15.394;2022-12-29T07:09:21;47.50;;;13.90;;
1747;SDS011;871;47.034;15.394;2022-12-29T07:11:47;47.22;;;12.02;;
1747;SDS011;871;47.034;15.394;2022-12-29T07:14:13;47.60;;;14.43;;
1747;SDS011;871;47.034;15.394;2022-12-29T07:16:39;47.13;;;13.43;;
1747;SDS011;871;47.034;15.394;2022-12-29T07:19:05;47.05;;;13.68;;
1747;SDS011;871;47.034;15.394;2022-12-29T07:21:31;47.85;;;12.60;;
1747;SDS011;871;47.034;15.394;2022-12-29T07:23:57;48.05;;;14.30;;
1747;SDS011;871;47.034;15.394;2022-12-29T07:26:23;47.20;;;12.35;;
1747;SDS011;871;47.034;15.394;2022-12-29T07:28:49;50.08;;;13.52;;
1747;SDS011;871;47.034;15.394;2022-12-29T07:31:16;49.63;;;14.50;;
1747;SDS011;871;47.034;15.394;2022-12-29T07:33:43;50.17;;;13.85;;
1747;SDS011;871;47.034;15.394;2022-12-29T07:36:10;49.25;;;14.77;;
1747;SDS011;871;47.034;15.394;2022-12-29T07:38:36;54.58;;;15.80;;
1747;SDS011;871;47.034;15.394;2022-12-29T07:41:02;48.80;;;14.70;;
1747;SDS011;871;47.034;15.394;2022-12-29T07:43:28;46.33;;;11.80;;
1747;SDS011;871;47.034;15.394;2022-12-29T07:45:54;51.92;;;14.82;;
1747;SDS011;871;47.034;15.394;2022-12-29T07:48:20;50.25;;;15.63;;
1747;SDS011;871;47.034;15.394;2022-12-29T07:50:46;52.25;;;15.30;;
1747;SDS011;871;47.034;15.394;2022-12-29T07:53:12;48.97;;;16.52;;
1747;SDS011;871;47.034;15.394;2022-12-29T07:55:39;51.40;;;15.68;;
1747;SDS011;871;47.034;15.394;2022-12-29T07:58:05;50.72;;;15.93;;
1747;SDS011;871;47.034;15.394;2022-12-29T08:00:31;49.63;;;16.98;;
1747;SDS011;871;47.034;15.394;2022-12-29T08:02:58;49.28;;;16.23;;
1747;SDS011;871;47.034;15.394;2022-12-29T08:05:25;52.85;;;15.77;;
1747;SDS011;871;47.034;15.394;2022-12-29T08:07:51;52.60;;;16.35;;
1747;SDS011;871;47.034;15.394;2022-12-29T08:10:17;51.55;;;16.13;;
1747;SDS011;871;47.034;15.394;2022-12-29T08:12:43;56.85;;;17.40;;
1747;SDS011;871;47.034;15.394;2022-12-29T08:15:10;57.72;;;17.73;;
1747;SDS011;871;47.034;15.394;2022-12-29T08:17:36;51.28;;;15.15;;
1747;SDS011;871;47.034;15.394;2022-12-29T08:20:03;58.33;;;16.58;;
1747;SDS011;871;47.034;15.394;2022-12-29T08:22:30;56.60;;;17.38;;
1747;SDS011;871;47.034;15.394;2022-12-29T08:24:56;52.75;;;17.15;;
1747;SDS011;871;47.034;15.394;2022-12-29T08:27:23;53.85;;;17.13;;
1747;SDS011;871;47.034;15.394;2022-12-29T08:29:49;53.72;;;16.00;;
1747;SDS011;871;47.034;15.394;2022-12-29T08:32:15;54.30;;;17.75;;
1747;SDS011;871;47.034;15.394;2022-12-29T08:34:41;54.50;;;18.17;;
1747;SDS011;871;47.034;15.394;2022-12-29T08:37:07;54.13;;;18.27;;
1747;SDS011;871;47.034;15.394;2022-12-29T08:39:33;49.60;;;15.88;;
1747;SDS011;871;47.034;15.394;2022-12-29T08:41:59;52.72;;;17.70;;
1747;SDS011;871;47.034;15.394;2022-12-29T08:44:25;50.28;;;16.55;;
1747;SDS011;871;47.034;15.394;2022-12-29T08:46:51;56.78;;;17.70;;
1747;SDS011;871;47.034;15.394;2022-12-29T08:49:17;53.60;;;15.80;;
1747;SDS011;871;47.034;15.394;2022-12-29T08:51:43;53.58;;;17.35;;
1747;SDS011;871;47.034;15.394;2022-12-29T08:54:09;54.97;;;16.90;;
1747;SDS011;871;47.034;15.394;2022-12-29T08:56:36;62.67;;;17.85;;
1747;SDS011;871;47.034;15.394;2022-12-29T08:59:02;56.33;;;17.00;;
1747;SDS011;871;47.034;15.394;2022-12-29T09:01:28;56.78;;;17.48;;
1747;SDS011;871;47.034;15.394;2022-12-29T09:03:55;53.85;;;16.77;;
1747;SDS011;871;47.034;15.394;2022-12-29T09:06:21;55.72;;;16.27;;
1747;SDS011;871;47.034;15.394;2022-12-29T09:08:48;54.97;;;14.23;;
1747;SDS011;871;47.034;15.394;2022-12-29T09:11:16;52.85;;;15.88;;
1747;SDS011;871;47.034;15.394;2022-12-29T09:13:42;55.58;;;15.02;;
1747;SDS011;871;47.034;15.394;2022-12-29T09:16:08;55.65;;;15.57;;
1747;SDS011;871;47.034;15.394;2022-12-29T09:18:35;55.08;;;14.85;;
1747;SDS011;871;47.034;15.394;2022-12-29T09:21:03;51.92;;;15.00;;
1747;SDS011;871;47.034;15.394;2022-12-29T09:23:29;48.38;;;12.80;;
1747;SDS011;871;47.034;15.394;2022-12-29T09:25:55;49.08;;;14.57;;
1747;SDS011;871;47.034;15.394;2022-12-29T09:28:21;53.65;;;15.13;;
1747;SDS011;871;47.034;15.394;2022-12-29T09:30:48;55.00;;;15.05;;
1747;SDS011;871;47.034;15.394;2022-12-29T09:33:17;50.00;;;13.40;;
1747;SDS011;871;47.034;15.394;2022-12-29T09:35:44;51.97;;;13.77;;
1747;SDS011;871;47.034;15.394;2022-12-29T09:38:10;52.47;;;13.43;;
1747;SDS011;871;47.034;15.394;2022-12-29T09:40:37;51.50;;;14.55;;
1747;SDS011;871;47.034;15.394;2022-12-29T09:43:11;49.42;;;12.75;;
1747;SDS011;871;47.034;15.394;2022-12-29T09:45:44;49.30;;;13.05;;
1747;SDS011;871;47.034;15.394;2022-12-29T09:48:16;48.90;;;12.55;;
1747;SDS011;871;47.034;15.394;2022-12-29T09:50:49;50.60;;;12.40;;
1747;SDS011;871;47.034;15.394;2022-12-29T09:53:27;52.53;;;11.88;;
1747;SDS011;871;47.034;15.394;2022-12-29T09:55:56;51.08;;;11.82;;
1747;SDS011;871;47.034;15.394;2022-12-29T09:58:24;50.42;;;13.23;;
1747;SDS011;871;47.034;15.394;2022-12-29T10:00:56;51.65;;;11.95;;
1747;SDS011;871;47.034;15.394;2022-12-29T10:03:24;52.65;;;13.18;;
1747;SDS011;871;47.034;15.394;2022-12-29T10:06:09;47.60;;;11.32;;
1747;SDS011;871;47.034;15.394;2022-12-29T10:08:39;52.83;;;13.85;;
1747;SDS011;871;47.034;15.394;2022-12-29T10:11:16;48.90;;;13.18;;
1747;SDS011;871;47.034;15.394;2022-12-29T10:21:48;51.95;;;10.68;;
1747;SDS011;871;47.034;15.394;2022-12-29T10:24:16;53.47;;;14.70;;
1747;SDS011;871;47.034;15.394;2022-12-29T10:26:43;53.38;;;14.25;;
1747;SDS011;871;47.034;15.394;2022-12-29T10:29:14;52.97;;;13.00;;
1747;SDS011;871;47.034;15.394;2022-12-29T10:31:58;53.05;;;10.70;;
1747;SDS011;871;47.034;15.394;2022-12-29T10:34:31;48.90;;;12.10;;
1747;SDS011;871;47.034;15.394;2022-12-29T10:37:04;47.90;;;11.40;;
1747;SDS011;871;47.034;15.394;2022-12-29T10:39:37;48.95;;;9.98;;
1747;SDS011;871;47.034;15.394;2022-12-29T10:42:09;50.30;;;11.40;;
1747;SDS011;871;47.034;15.394;2022-12-29T10:44:36;49.53;;;11.23;;
1747;SDS011;871;47.034;15.394;2022-12-29T10:47:09;47.07;;;11.00;;
1747;SDS011;871;47.034;15.394;2022-12-29T10:49:37;47.40;;;10.33;;
1747;SDS011;871;47.034;15.394;2022-12-29T10:52:04;51.60;;;10.47;;
1747;SDS011;871;47.034;15.394;2022-12-29T10:54:36;53.00;;;10.73;;
1747;SDS011;871;47.034;15.394;2022-12-29T10:57:09;48.73;;;9.27;;
1747;SDS011;871;47.034;15.394;2022-12-29T10:59:38;47.77;;;9.03;;
1747;SDS011;871;47.034;15.394;2022-12-29T11:02:13;47.83;;;8.13;;
1747;SDS011;871;47.034;15.394;2022-12-29T11:05:02;49.90;;;9.50;;
1747;SDS011;871;47.034;15.394;2022-12-29T11:07:30;49.60;;;9.50;;
1747;SDS011;871;47.034;15.394;2022-12-29T11:10:16;48.40;;;8.90;;
1747;SDS011;871;47.034;15.394;2022-12-29T11:12:44;46.30;;;8.60;;
1747;SDS011;871;47.034;15.394;2022-12-29T11:15:19;45.33;;;7.90;;
1747;SDS011;871;47.034;15.394;2022-12-29T11:17:47;54.17;;;8.40;;
1747;SDS011;871;47.034;15.394;2022-12-29T11:20:19;46.47;;;7.27;;
1747;SDS011;871;47.034;15.394;2022-12-29T11:22:45;47.50;;;8.00;;
1747;SDS011;871;47.034;15.394;2022-12-29T11:25:12;48.13;;;7.97;;
1747;SDS011;871;47.034;15.394;2022-12-29T11:27:38;49.80;;;9.10;;
1747;SDS011;871;47.034;15.394;2022-12-29T11:30:22;46.80;;;8.23;;
1747;SDS011;871;47.034;15.394;2022-12-29T11:32:53;47.80;;;7.77;;
1747;SDS011;871;47.034;15.394;2022-12-29T11:38:20;45.63;;;7.10;;
1747;SDS011;871;47.034;15.394;2022-12-29T11:40:46;44.57;;;8.67;;
1747;SDS011;871;47.034;15.394;2022-12-29T11:43:20;45.67;;;8.90;;
1747;SDS011;871;47.034;15.394;2022-12-29T11:45:47;46.83;;;9.33;;
1747;SDS011;871;47.034;15.394;2022-12-29T11:48:16;47.03;;;7.80;;
1747;SDS011;871;47.034;15.394;2022-12-29T11:50:42;46.07;;;7.73;;
1747;SDS011;871;47.034;15.394;2022-12-29T11:58:18;47.33;;;8.13;;
1747;SDS011;871;47.034;15.394;2022-12-29T12:00:44;47.37;;;8.90;;
1747;SDS011;871;47.034;15.394;2022-12-29T12:03:21;46.57;;;9.10;;
1747;SDS011;871;47.034;15.394;2022-12-29T12:05:50;46.00;;;7.27;;
1747;SDS011;871;47.034;15.394;2022-12-29T12:10:48;47.17;;;8.10;;
1747;SDS011;871;47.034;15.394;2022-12-29T12:15:50;47.07;;;9.40;;
1747;SDS011;871;47.034;15.394;2022-12-29T12:20:45;47.33;;;9.73;;
1747;SDS011;871;47.034;15.394;2022-12-29T12:26:24;44.60;;;8.37;;
1747;SDS011;871;47.034;15.394;2022-12-29T12:31:05;47.10;;;7.90;;
1747;SDS011;871;47.034;15.394;2022-12-29T12:33:36;45.50;;;8.60;;
1747;SDS011;871;47.034;15.394;2022-12-29T12:38:54;43.73;;;7.83;;
1747;SDS011;871;47.034;15.394;2022-12-29T12:44:12;42.90;;;7.57;;
1747;SDS011;871;47.034;15.394;2022-12-29T12:49:13;48.03;;;8.53;;
1747;SDS011;871;47.034;15.394;2022-12-29T12:52:06;45.20;;;8.00;;
1747;SDS011;871;47.034;15.394;2022-12-29T13:02:38;43.23;;;6.90;;
1747;SDS011;871;47.034;15.394;2022-12-29T13:13:34;42.63;;;6.60;;
1747;SDS011;871;47.034;15.394;2022-12-29T13:16:08;44.47;;;7.07;;
1747;SDS011;871;47.034;15.394;2022-12-29T13:26:32;45.23;;;7.20;;
1747;SDS011;871;47.034;15.394;2022-12-29T13:31:56;45.07;;;6.43;;
1747;SDS011;871;47.034;15.394;2022-12-29T13:37:01;45.67;;;7.57;;
1747;SDS011;871;47.034;15.394;2022-12-29T13:39:33;48.57;;;8.10;;
1747;SDS011;871;47.034;15.394;2022-12-29T13:42:00;45.90;;;7.30;;
1747;SDS011;871;47.034;15.394;2022-12-29T13:44:30;44.17;;;7.50;;
1747;SDS011;871;47.034;15.394;2022-12-29T13:46:58;51.50;;;7.27;;
1747;SDS011;871;47.034;15.394;2022-12-29T13:49:25;44.80;;;7.10;;
1747;SDS011;871;47.034;15.394;2022-12-29T13:52:05;44.07;;;7.30;;
1747;SDS011;871;47.034;15.394;2022-12-29T13:59:50;49.00;;;7.87;;
1747;SDS011;871;47.034;15.394;2022-12-29T14:04:57;45.97;;;7.77;;
1747;SDS011;871;47.034;15.394;2022-12-29T14:07:24;46.20;;;7.90;;
1747;SDS011;871;47.034;15.394;2022-12-29T14:09:50;43.40;;;6.60;;
1747;SDS011;871;47.034;15.394;2022-12-29T14:12:37;43.37;;;6.60;;
1747;SDS011;871;47.034;15.394;2022-12-29T14:17:36;51.30;;;10.23;;
1747;SDS011;871;47.034;15.394;2022-12-29T14:20:03;46.83;;;8.67;;
1747;SDS011;871;47.034;15.394;2022-12-29T14:22:32;45.13;;;8.20;;
1747;SDS011;871;47.034;15.394;2022-12-29T14:24:59;47.80;;;8.57;;
1747;SDS011;871;47.034;15.394;2022-12-29T14:29:54;45.73;;;7.70;;
1747;SDS011;871;47.034;15.394;2022-12-29T14:34:47;46.90;;;9.37;;
1747;SDS011;871;47.034;15.394;2022-12-29T14:39:48;46.30;;;8.00;;
1747;SDS011;871;47.034;15.394;2022-12-29T14:42:15;44.60;;;7.00;;
1747;SDS011;871;47.034;15.394;2022-12-29T14:44:49;52.60;;;7.10;;
1747;SDS011;871;47.034;15.394;2022-12-29T14:49:51;48.83;;;7.33;;
1747;SDS011;871;47.034;15.394;2022-12-29T14:52:18;44.43;;;6.43;;
1747;SDS011;871;47.034;15.394;2022-12-29T14:54:49;44.73;;;7.33;;
1747;SDS011;871;47.034;15.394;2022-12-29T14:57:24;46.30;;;7.20;;
1747;SDS011;871;47.034;15.394;2022-12-29T14:59:56;43.87;;;7.77;;
1747;SDS011;871;47.034;15.394;2022-12-29T15:02:24;44.97;;;7.00;;
1747;SDS011;871;47.034;15.394;2022-12-29T15:04:52;41.53;;;6.57;;
1747;SDS011;871;47.034;15.394;2022-12-29T15:07:19;48.23;;;9.13;;
1747;SDS011;871;47.034;15.394;2022-12-29T15:09:51;46.60;;;6.20;;
1747;SDS011;871;47.034;15.394;2022-12-29T15:14:49;47.50;;;8.30;;
1747;SDS011;871;47.034;15.394;2022-12-29T15:19:51;43.25;;;6.97;;
1747;SDS011;871;47.034;15.394;2022-12-29T15:22:17;44.87;;;6.97;;
1747;SDS011;871;47.034;15.394;2022-12-29T15:24:44;48.78;;;7.50;;
1747;SDS011;871;47.034;15.394;2022-12-29T15:27:13;46.53;;;8.43;;
1747;SDS011;871;47.034;15.394;2022-12-29T15:29:40;44.90;;;6.90;;
1747;SDS011;871;47.034;15.394;2022-12-29T15:32:15;45.73;;;7.67;;
1747;SDS011;871;47.034;15.394;2022-12-29T15:34:45;49.50;;;8.43;;
1747;SDS011;871;47.034;15.394;2022-12-29T15:37:19;44.07;;;7.23;;
1747;SDS011;871;47.034;15.394;2022-12-29T15:39:47;48.83;;;8.17;;
1747;SDS011;871;47.034;15.394;2022-12-29T15:44:48;46.37;;;6.90;;
1747;SDS011;871;47.034;15.394;2022-12-29T15:49:44;45.00;;;7.03;;
1747;SDS011;871;47.034;15.394;2022-12-29T15:52:13;46.28;;;7.30;;
1747;SDS011;871;47.034;15.394;2022-12-29T15:54:43;46.33;;;7.32;;
1747;SDS011;871;47.034;15.394;2022-12-29T15:57:21;46.78;;;7.32;;
1747;SDS011;871;47.034;15.394;2022-12-29T15:59:50;46.13;;;8.27;;
1747;SDS011;871;47.034;15.394;2022-12-29T16:02:16;45.28;;;7.10;;
1747;SDS011;871;47.034;15.394;2022-12-29T16:04:43;45.38;;;7.72;;
1747;SDS011;871;47.034;15.394;2022-12-29T16:07:22;50.97;;;9.55;;
1747;SDS011;871;47.034;15.394;2022-12-29T16:09:53;50.92;;;8.48;;
1747;SDS011;871;47.034;15.394;2022-12-29T16:12:23;50.45;;;10.15;;
1747;SDS011;871;47.034;15.394;2022-12-29T16:14:52;49.45;;;8.95;;
1747;SDS011;871;47.034;15.394;2022-12-29T16:17:21;48.17;;;8.73;;
1747;SDS011;871;47.034;15.394;2022-12-29T16:19:53;48.33;;;9.32;;
1747;SDS011;871;47.034;15.394;2022-12-29T16:22:33;44.20;;;8.15;;
1747;SDS011;871;47.034;15.394;2022-12-29T16:25:04;48.40;;;9.60;;
1747;SDS011;871;47.034;15.394;2022-12-29T16:27:32;52.15;;;9.77;;
1747;SDS011;871;47.034;15.394;2022-12-29T16:29:58;47.17;;;8.40;;
1747;SDS011;871;47.034;15.394;2022-12-29T16:32:29;51.33;;;9.48;;
1747;SDS011;871;47.034;15.394;2022-12-29T16:37:41;56.08;;;10.25;;
1747;SDS011;871;47.034;15.394;2022-12-29T16:42:54;47.35;;;9.50;;
1747;SDS011;871;47.034;15.394;2022-12-29T16:50:35;50.10;;;11.00;;
1747;SDS011;871;47.034;15.394;2022-12-29T16:53:01;50.72;;;10.60;;
1747;SDS011;871;47.034;15.394;2022-12-29T16:55:28;52.53;;;11.30;;
1747;SDS011;871;47.034;15.394;2022-12-29T16:57:54;48.33;;;8.40;;
1747;SDS011;871;47.034;15.394;2022-12-29T17:00:24;47.55;;;8.77;;
1747;SDS011;871;47.034;15.394;2022-12-29T17:02:52;46.90;;;8.73;;
1747;SDS011;871;47.034;15.394;2022-12-29T17:05:19;51.15;;;11.40;;
1747;SDS011;871;47.034;15.394;2022-12-29T17:07:45;46.65;;;9.00;;
1747;SDS011;871;47.034;15.394;2022-12-29T17:10:12;50.13;;;10.70;;
1747;SDS011;871;47.034;15.394;2022-12-29T17:12:39;45.85;;;10.10;;
1747;SDS011;871;47.034;15.394;2022-12-29T17:17:46;45.92;;;8.85;;
1747;SDS011;871;47.034;15.394;2022-12-29T17:22:39;51.17;;;11.32;;
1747;SDS011;871;47.034;15.394;2022-12-29T17:25:05;47.53;;;8.98;;
1747;SDS011;871;47.034;15.394;2022-12-29T17:27:33;48.50;;;9.32;;
1747;SDS011;871;47.034;15.394;2022-12-29T17:30:03;47.38;;;8.75;;
1747;SDS011;871;47.034;15.394;2022-12-29T17:32:30;50.25;;;9.40;;
1747;SDS011;871;47.034;15.394;2022-12-29T17:34:57;50.78;;;10.80;;
1747;SDS011;871;47.034;15.394;2022-12-29T17:39:49;45.33;;;8.40;;
1747;SDS011;871;47.034;15.394;2022-12-29T17:42:15;45.97;;;8.40;;
1747;SDS011;871;47.034;15.394;2022-12-29T17:44:41;45.78;;;7.82;;
1747;SDS011;871;47.034;15.394;2022-12-29T17:47:09;42.55;;;6.55;;
1747;SDS011;871;47.034;15.394;2022-12-29T17:49:35;46.20;;;8.23;;
1747;SDS011;871;47.034;15.394;2022-12-29T17:52:03;44.35;;;8.70;;
1747;SDS011;871;47.034;15.394;2022-12-29T17:54:29;48.13;;;9.00;;
1747;SDS011;871;47.034;15.394;2022-12-29T17:56:56;47.92;;;9.07;;
1747;SDS011;871;47.034;15.394;2022-12-29T17:59:22;49.10;;;9.15;;
1747;SDS011;871;47.034;15.394;2022-12-29T18:01:48;42.80;;;7.45;;
1747;SDS011;871;47.034;15.394;2022-12-29T18:04:16;45.30;;;7.72;;
1747;SDS011;871;47.034;15.394;2022-12-29T18:06:43;48.58;;;7.85;;
1747;SDS011;871;47.034;15.394;2022-12-29T18:09:10;47.67;;;8.80;;
1747;SDS011;871;47.034;15.394;2022-12-29T18:11:40;46.88;;;8.73;;
1747;SDS011;871;47.034;15.394;2022-12-29T18:14:14;45.97;;;9.05;;
1747;SDS011;871;47.034;15.394;2022-12-29T18:16:41;47.10;;;8.52;;
1747;SDS011;871;47.034;15.394;2022-12-29T18:19:07;43.75;;;7.85;;
1747;SDS011;871;47.034;15.394;2022-12-29T18:21:33;45.05;;;8.15;;
1747;SDS011;871;47.034;15.394;2022-12-29T18:24:00;46.05;;;7.65;;
1747;SDS011;871;47.034;15.394;2022-12-29T18:26:27;47.10;;;8.13;;
1747;SDS011;871;47.034;15.394;2022-12-29T18:28:56;43.10;;;7.57;;
1747;SDS011;871;47.034;15.394;2022-12-29T18:31:24;42.58;;;7.53;;
1747;SDS011;871;47.034;15.394;2022-12-29T18:33:51;48.75;;;9.05;;
1747;SDS011;871;47.034;15.394;2022-12-29T18:36:18;49.00;;;6.97;;
1747;SDS011;871;47.034;15.394;2022-12-29T18:38:44;48.10;;;10.63;;
1747;SDS011;871;47.034;15.394;2022-12-29T18:41:17;49.35;;;10.13;;
1747;SDS011;871;47.034;15.394;2022-12-29T18:43:44;56.33;;;13.98;;
1747;SDS011;871;47.034;15.394;2022-12-29T18:46:10;51.53;;;12.15;;
1747;SDS011;871;47.034;15.394;2022-12-29T18:48:37;54.20;;;13.13;;
1747;SDS011;871;47.034;15.394;2022-12-29T18:51:03;52.25;;;13.25;;
1747;SDS011;871;47.034;15.394;2022-12-29T18:53:29;51.15;;;14.02;;
1747;SDS011;871;47.034;15.394;2022-12-29T18:55:56;60.88;;;15.70;;
1747;SDS011;871;47.034;15.394;2022-12-29T18:58:23;51.30;;;10.88;;
1747;SDS011;871;47.034;15.394;2022-12-29T19:00:51;49.50;;;11.20;;
1747;SDS011;871;47.034;15.394;2022-12-29T19:03:18;50.42;;;12.75;;
1747;SDS011;871;47.034;15.394;2022-12-29T19:05:45;48.47;;;11.75;;
1747;SDS011;871;47.034;15.394;2022-12-29T19:08:11;50.25;;;12.32;;
1747;SDS011;871;47.034;15.394;2022-12-29T19:10:37;51.45;;;11.90;;
1747;SDS011;871;47.034;15.394;2022-12-29T19:13:05;50.13;;;12.65;;
1747;SDS011;871;47.034;15.394;2022-12-29T19:15:32;47.55;;;11.90;;
1747;SDS011;871;47.034;15.394;2022-12-29T19:18:00;41.47;;;8.27;;
1747;SDS011;871;47.034;15.394;2022-12-29T19:20:37;50.75;;;11.30;;
1747;SDS011;871;47.034;15.394;2022-12-29T19:23:05;53.75;;;11.82;;
1747;SDS011;871;47.034;15.394;2022-12-29T19:25:31;50.13;;;13.00;;
1747;SDS011;871;47.034;15.394;2022-12-29T19:27:58;53.38;;;12.88;;
1747;SDS011;871;47.034;15.394;2022-12-29T19:30:24;51.17;;;12.20;;
1747;SDS011;871;47.034;15.394;2022-12-29T19:32:51;47.88;;;11.85;;
1747;SDS011;871;47.034;15.394;2022-12-29T19:35:17;46.10;;;11.20;;
1747;SDS011;871;47.034;15.394;2022-12-29T19:37:44;51.80;;;12.93;;
1747;SDS011;871;47.034;15.394;2022-12-29T19:40:14;53.47;;;12.55;;
1747;SDS011;871;47.034;15.394;2022-12-29T19:42:40;52.20;;;11.50;;
1747;SDS011;871;47.034;15.394;2022-12-29T19:45:07;50.20;;;11.43;;
1747;SDS011;871;47.034;15.394;2022-12-29T19:47:33;44.33;;;9.48;;
1747;SDS011;871;47.034;15.394;2022-12-29T19:50:00;54.13;;;11.85;;
1747;SDS011;871;47.034;15.394;2022-12-29T19:52:26;52.17;;;10.38;;
1747;SDS011;871;47.034;15.394;2022-12-29T19:54:53;47.95;;;11.32;;
1747;SDS011;871;47.034;15.394;2022-12-29T19:57:20;50.63;;;12.55;;
1747;SDS011;871;47.034;15.394;2022-12-29T19:59:46;51.35;;;12.60;;
1747;SDS011;871;47.034;15.394;2022-12-29T20:02:31;51.47;;;12.70;;
1747;SDS011;871;47.034;15.394;2022-12-29T20:04:57;49.30;;;12.57;;
1747;SDS011;871;47.034;15.394;2022-12-29T20:07:24;51.72;;;12.77;;
1747;SDS011;871;47.034;15.394;2022-12-29T20:09:50;48.40;;;12.25;;
1747;SDS011;871;47.034;15.394;2022-12-29T20:12:16;48.33;;;11.00;;
1747;SDS011;871;47.034;15.394;2022-12-29T20:14:43;48.63;;;11.10;;
1747;SDS011;871;47.034;15.394;2022-12-29T20:17:11;49.95;;;11.25;;
1747;SDS011;871;47.034;15.394;2022-12-29T20:19:37;51.75;;;12.52;;
1747;SDS011;871;47.034;15.394;2022-12-29T20:22:05;51.35;;;12.60;;
1747;SDS011;871;47.034;15.394;2022-12-29T20:24:31;58.33;;;13.32;;
1747;SDS011;871;47.034;15.394;2022-12-29T20:26:58;47.75;;;13.50;;
1747;SDS011;871;47.034;15.394;2022-12-29T20:29:24;57.55;;;15.15;;
1747;SDS011;871;47.034;15.394;2022-12-29T20:31:52;59.40;;;14.07;;
1747;SDS011;871;47.034;15.394;2022-12-29T20:34:18;60.67;;;14.27;;
1747;SDS011;871;47.034;15.394;2022-12-29T20:36:46;71.38;;;17.00;;
1747;SDS011;871;47.034;15.394;2022-12-29T20:39:18;52.95;;;12.82;;
1747;SDS011;871;47.034;15.394;2022-12-29T20:41:45;59.35;;;15.73;;
1747;SDS011;871;47.034;15.394;2022-12-29T20:44:11;56.45;;;14.93;;
1747;SDS011;871;47.034;15.394;2022-12-29T20:46:38;56.78;;;15.43;;
1747;SDS011;871;47.034;15.394;2022-12-29T20:49:04;60.05;;;15.32;;
1747;SDS011;871;47.034;15.394;2022-12-29T20:51:30;59.55;;;15.15;;
1747;SDS011;871;47.034;15.394;2022-12-29T20:53:57;56.97;;;16.23;;
1747;SDS011;871;47.034;15.394;2022-12-29T20:56:23;56.17;;;15.90;;
1747;SDS011;871;47.034;15.394;2022-12-29T20:58:50;63.67;;;18.17;;
1747;SDS011;871;47.034;15.394;2022-12-29T21:01:17;60.75;;;15.55;;
1747;SDS011;871;47.034;15.394;2022-12-29T21:03:43;67.13;;;18.95;;
1747;SDS011;871;47.034;15.394;2022-12-29T21:06:09;61.70;;;17.45;;
1747;SDS011;871;47.034;15.394;2022-12-29T21:08:37;53.15;;;16.08;;
1747;SDS011;871;47.034;15.394;2022-12-29T21:11:03;54.97;;;14.88;;
1747;SDS011;871;47.034;15.394;2022-12-29T21:13:30;52.03;;;15.68;;
1747;SDS011;871;47.034;15.394;2022-12-29T21:16:04;59.08;;;14.73;;
1747;SDS011;871;47.034;15.394;2022-12-29T21:18:31;45.60;;;11.77;;
1747;SDS011;871;47.034;15.394;2022-12-29T21:20:58;50.08;;;13.18;;
1747;SDS011;871;47.034;15.394;2022-12-29T21:23:24;55.55;;;15.32;;
1747;SDS011;871;47.034;15.394;2022-12-29T21:25:51;53.90;;;14.30;;
1747;SDS011;871;47.034;15.394;2022-12-29T21:28:18;54.30;;;14.18;;
1747;SDS011;871;47.034;15.394;2022-12-29T21:30:45;54.20;;;14.50;;
1747;SDS011;871;47.034;15.394;2022-12-29T21:33:31;53.92;;;13.68;;
1747;SDS011;871;47.034;15.394;2022-12-29T21:36:02;57.25;;;14.80;;
1747;SDS011;871;47.034;15.394;2022-12-29T21:38:28;56.42;;;13.35;;
1747;SDS011;871;47.034;15.394;2022-12-29T21:40:55;58.10;;;16.25;;
1747;SDS011;871;47.034;15.394;2022-12-29T21:43:21;47.85;;;12.10;;
1747;SDS011;871;47.034;15.394;2022-12-29T21:45:48;48.67;;;13.57;;
1747;SDS011;871;47.034;15.394;2022-12-29T21:48:14;49.80;;;14.25;;
1747;SDS011;871;47.034;15.394;2022-12-29T21:50:49;53.65;;;14.27;;
1747;SDS011;871;47.034;15.394;2022-12-29T21:53:36;48.45;;;12.85;;
1747;SDS011;871;47.034;15.394;2022-12-29T21:56:06;49.97;;;13.40;;